Tiempo atmosférico en la estación meteorológica de Belmonte, Cuenca (800 m.)



Fecha
DESCASC
Temp. máxima en grados centígrados (hora)
DESCASC
Temp. mínima en grados centígrados (hora)
DESCASC
Temp. media en grados centígrados
DESCASC
Racha de viento máxima en m/sg (hora)
DESCASC
Velocidad máxima media en intervalos de 10 minutos(hora)
DESCASC
Precipitaciones diarias en mm
DESCASC
Precipitaciones de 00:00 a 06:00 en mm
DESCASC
Precipitaciones de 06:00 a 12:00 en mm
DESCASC
Precipitaciones de 12:00 a 18:00 en mm
DESCASC
Precipitaciones de 18:00 a 24:00 en mm
DESCASC
02-08-2020 38.1 (17:00) 18.9 (07:30) 28.5 13.89 (23:50) 4.17 (18:00) 0 0 0 0 0
01-08-2020 39.2 (17:20) 22.5 (08:10) 30.9 10.56 (16:50) 4.44 (19:20) 0 0 0 0 0
31-07-2020 38.8 (17:20) 23 (07:00) 30.9 9.72 (02:20) 5.56 (01:40) 0 0 0 0 0
30-07-2020 37.7 (16:00) 22.4 (00:00) 30.1 15.28 (20:00) 9.17 (20:10) 1.4 0 0 1.4 0
29-07-2020 36.7 (17:00) 22.6 (00:00) 29.7 13.33 (23:40) 7.5 (22:40) 0 0 0 0 0
28-07-2020 -- (--) -- (--) -- -- (--) -- (--) 0 0 0 0 0
27-07-2020 40 (16:50) 22.4 (00:00) 31.2 13.89 (00:40) 7.5 (00:40) 0 0 0 0 0
26-07-2020 39.1 (16:50) 20.7 (00:00) 29.9 10.83 (23:59) 6.11 (23:59) 0 0 0 0 0
25-07-2020 37.5 (17:10) 21.2 (00:00) 29.4 9.72 (03:10) 5.56 (02:40) 0 0 0 0 0
24-07-2020 37.1 (17:00) 21.1 (00:00) 29.1 7.5 (16:20) 3.06 (14:30) 0 0 0 0 0
23-07-2020 36.1 (17:20) 19.4 (00:00) 27.7 7.78 (01:30) 4.44 (01:10) 0 0 0 0 0
22-07-2020 32.6 (17:50) 19.5 (00:00) 26 11.11 (01:20) 7.22 (01:00) 0 0 0 0 0
21-07-2020 34.9 (16:50) 19.5 (00:00) 27.2 12.78 (17:00) 7.22 (17:00) 0 0 0 0 0
20-07-2020 36.5 (16:50) 19.8 (00:00) 28.1 11.67 (23:59) 5.28 (23:10) 0 0 0 0 0
19-07-2020 37 (16:30) 19.4 (00:00) 28.2 13.06 (18:30) 5.83 (02:40) 0 0 0 0 0
18-07-2020 35.4 (17:20) 18.5 (00:00) 27 12.5 (02:20) 6.39 (02:00) 0 0 0 0 0
17-07-2020 35.5 (16:40) 19.1 (00:00) 27.3 10.56 (02:30) 6.39 (02:30) 0 0 0 0 0
16-07-2020 34 (17:20) 19 (00:00) 26.5 9.17 (04:30) 5.28 (02:50) 0 0 0 0 0
15-07-2020 30.4 (17:50) 16.9 (00:00) 23.6 8.61 (07:00) 5 (00:10) 0 0 0 0 0
14-07-2020 -- (--) -- (--) -- -- (--) -- (--) -- 0 -- 3.4 0.8
13-07-2020 32.8 (17:50) 19.6 (00:00) 26.2 12.22 (01:30) 7.22 (01:00) 0 0 0 0 0
12-07-2020 28.6 (12:30) 20.4 (06:50) 24.5 13.33 (05:30) 7.78 (04:40) 2.6 0 0 2.6 0
11-07-2020 33.7 (16:30) 20.6 (07:10) 27.2 11.39 (10:30) 6.39 (10:20) 0 0 0 0 0
10-07-2020 32.8 (17:30) 17.6 (00:00) 25.2 8.89 (23:40) 5.28 (23:50) 0 0 0 0 0
09-07-2020 30.9 (16:20) 17.5 (18:00) 24.2 13.33 (17:40) 6.11 (00:20) 16.4 0.4 0 15.8 0.2
08-07-2020 31.5 (14:30) 21 (22:50) 26.3 15 (16:50) 8.89 (16:40) 1 0 0 0 1

Gráficas

Temp. máximas Temp. mínimas Temp. medias Precipitaciones Rachas de viento máximas Velocidades máximas media en intervalos de 10 minutos

Datos horarios

Fecha y hora oficial Temperatura (ºC) Velocidad del viento (km/h) Dirección del viento Racha (km/h) Dirección de racha Precipitación (mm) Presión (hPa) Tendencia (hPa) Humedad (%)
2020-08-06 23:00:00 29.2 16 Sudeste 27 Sudeste 0 -- -- 40
2020-08-06 22:00:00 31.1 12 Sudeste 24 Sudeste 0 -- -- 32
2020-08-06 21:00:00 33.5 12 Sudeste 26 Sudeste 0 -- -- 25
2020-08-06 20:00:00 35.2 11 Sudeste 20 Sudeste 0 -- -- 23
2020-08-06 19:00:00 35.9 12 Sudeste 26 Sudeste 0 -- -- 22
2020-08-06 18:00:00 36.2 7 Sudeste 22 Sudeste 0 -- -- 23
2020-08-06 17:00:00 36.1 11 Sudeste 25 Sudeste 0 -- -- 24
2020-08-06 16:00:00 35.5 13 Sudeste 27 Sudeste 0 -- -- 27
2020-08-06 15:00:00 34.7 13 Sudeste 29 Sudeste 0 -- -- 29
2020-08-06 14:00:00 33 17 Sudeste 30 Sudeste 0 -- -- 33
2020-08-06 13:00:00 31 16 Sudeste 28 Sur 0 -- -- 40
2020-08-06 12:00:00 28.6 19 Sudeste 34 Sudeste 0 -- -- 47
2020-08-06 11:00:00 26.2 18 Sudeste 36 Sudeste 0 -- -- 57
2020-08-06 10:00:00 24 21 Sudeste 39 Sudeste 0 -- -- 64
2020-08-06 09:00:00 22.2 22 Sudeste 41 Este 0 -- -- 67
2020-08-06 08:00:00 21.2 21 Sudeste 39 Este 0 -- -- 65
2020-08-06 07:00:00 21.3 20 Sudeste 36 Sudeste 0 -- -- 63
2020-08-06 06:00:00 21.8 21 Sudeste 39 Este 0 -- -- 63
2020-08-06 05:00:00 21.8 21 Este 40 Este 0 -- -- 63
2020-08-06 04:00:00 22.2 22 Este 38 Este 0 -- -- 65
2020-08-06 03:00:00 22.7 24 Este 40 Este 0 -- -- 66
2020-08-06 02:00:00 23.5 24 Este 39 Sudeste 0 -- -- 66
2020-08-06 01:00:00 26 18 Sudeste 35 Sudeste 0 -- -- 58
2020-08-06 00:00:00 27.7 16 Este 30 Este 0 -- -- 40
2020-08-05 23:00:00 27.5 7 Nordeste 11 Nordeste 0 -- -- 32
2020-08-05 22:00:00 30.1 5 Nordeste 9 Nordeste 0 -- -- 29
2020-08-05 21:00:00 32.3 0 Calma 8 Oeste 0 -- -- 27
2020-08-05 20:00:00 34.1 4 Sur 15 Sur 0 -- -- 23
2020-08-05 19:00:00 35.3 3 Sudoeste 17 Noroeste 0 -- -- 23
2020-08-05 18:00:00 35.6 4 Sudoeste 21 Oeste 0 -- -- 23
2020-08-05 17:00:00 35.7 6 Noroeste 17 Sudoeste 0 -- -- 25
2020-08-05 16:00:00 35.4 9 Oeste 23 Oeste 0 -- -- 26
2020-08-05 15:00:00 34.5 6 Norte 15 Noroeste 0 -- -- 28
2020-08-05 14:00:00 33.1 6 Sudoeste 18 Sur 0 -- -- 28
2020-08-05 13:00:00 30.9 6 Sur 17 Sudeste 0 -- -- 36
2020-08-05 12:00:00 28.3 9 Sudeste 20 Sudeste 0 -- -- 51
2020-08-05 11:00:00 25.6 14 Sudeste 26 Sudeste 0 -- -- 62
2020-08-05 10:00:00 23.5 15 Sudeste 30 Sudeste 0 -- -- 71
2020-08-05 09:00:00 21.4 15 Sudeste 30 Sudeste 0 -- -- 82
2020-08-05 08:00:00 20.2 17 Sudeste 28 Este 0 -- -- 86
2020-08-05 07:00:00 20.3 18 Sudeste 30 Este 0 -- -- 86
2020-08-05 06:00:00 20.5 16 Sudeste 31 Este 0 -- -- 86
2020-08-05 05:00:00 20.8 16 Sudeste 34 Este 0 -- -- 86
2020-08-05 04:00:00 21.1 20 Este 32 Sudeste 0 -- -- 85
2020-08-05 03:00:00 21.7 18 Este 33 Este 0 -- -- 82
2020-08-05 02:00:00 22.8 17 Sudeste 31 Este 0 -- -- 75
2020-08-05 01:00:00 23.7 16 Este 27 Este 0 -- -- 62
2020-08-05 00:00:00 23.8 5 Nordeste 13 Nordeste 0 -- -- 33
2020-08-04 23:00:00 25.2 5 Nordeste 9 Este 0 -- -- 31
2020-08-04 22:00:00 28.3 5 Nordeste 10 Norte 0 -- -- 27
2020-08-04 21:00:00 30.2 6 Norte 17 Noroeste 0 -- -- 25
2020-08-04 20:00:00 31.3 8 Norte 22 Noroeste 0 -- -- 23
2020-08-04 19:00:00 32.5 8 Noroeste 27 Noroeste 0 -- -- 23
2020-08-04 18:00:00 33.4 9 Noroeste 28 Oeste 0 -- -- 21
2020-08-04 17:00:00 33.5 5 Este 20 Norte 0 -- -- 22
2020-08-04 16:00:00 33.3 5 Norte 25 Norte 0 -- -- 25
2020-08-04 15:00:00 32.9 9 Noroeste 35 Nordeste 0 -- -- 26
2020-08-04 14:00:00 31.3 5 Sur 17 Norte 0 -- -- 30
2020-08-04 13:00:00 29.8 5 Sudeste 16 Este 0 -- -- 36
2020-08-04 12:00:00 29 6 Nordeste 16 Norte 0 -- -- 38
2020-08-04 11:00:00 27 5 Este 16 Este 0 -- -- 49
2020-08-04 10:00:00 24.7 5 Este 18 Este 0 -- -- 53
2020-08-04 09:00:00 22.1 6 Nordeste 16 Nordeste 0 -- -- 48
2020-08-04 08:00:00 20.7 7 Este 18 Este 0 -- -- 54
2020-08-04 07:00:00 21.1 6 Nordeste 15 Nordeste 0 -- -- 51
2020-08-04 06:00:00 21.5 5 Nordeste 15 Nordeste 0 -- -- 54
2020-08-04 05:00:00 22 2 Nordeste 12 Este 0 -- -- 68
2020-08-04 04:00:00 21.9 3 Este 12 Este 0 -- -- 72
2020-08-04 03:00:00 22.4 3 Nordeste 10 Nordeste 0 -- -- 62
2020-08-04 02:00:00 23.4 3 Noroeste 17 Este 0 -- -- 43
2020-08-04 01:00:00 23.6 4 Nordeste 15 Nordeste 0 -- -- 32
2020-08-04 00:00:00 23.5 4 Nordeste 9 Nordeste 0 -- -- 33
2020-08-03 23:00:00 25.8 5 Nordeste 9 Nordeste 0 -- -- 31
2020-08-03 22:00:00 28.2 3 Norte 12 Noroeste 0 -- -- 28
2020-08-03 21:00:00 29.6 8 Noroeste 18 Noroeste 0 -- -- 26
2020-08-03 20:00:00 31 7 Noroeste 24 Norte 0 -- -- 24
2020-08-03 19:00:00 32.1 12 Norte 29 Norte 0 -- -- 23
2020-08-03 18:00:00 32.4 10 Norte 28 Norte 0 -- -- 24
2020-08-03 17:00:00 32.9 12 Norte 31 Norte 0 -- -- 23
2020-08-03 16:00:00 32.8 10 Norte 30 Norte 0 -- -- 23
2020-08-03 15:00:00 32.4 13 Norte 30 Norte 0 -- -- 22
2020-08-03 14:00:00 31.5 15 Norte 34 Norte 0 -- -- 23
2020-08-03 13:00:00 30.9 9 Norte 27 Nordeste 0 -- -- 25
2020-08-03 12:00:00 29.7 9 Nordeste 19 Norte 0 -- -- 29
2020-08-03 11:00:00 28.2 5 Norte 14 Norte 0 -- -- 35
2020-08-03 10:00:00 25.7 2 Nordeste 12 Norte 0 -- -- 47
2020-08-03 09:00:00 22.1 5 Norte 13 Noroeste 0 -- -- 54
2020-08-03 08:00:00 20.8 4 Norte 12 Norte 0 -- -- 56
2020-08-03 07:00:00 21.4 4 Noroeste 9 Noroeste 0 -- -- 54
2020-08-03 06:00:00 21.8 3 Este 13 Norte 0 -- -- 53
2020-08-03 05:00:00 22.8 8 Norte 18 Nordeste 0 -- -- 50
2020-08-03 04:00:00 23.5 9 Norte 22 Nordeste 0 -- -- 48
2020-08-03 03:00:00 24.1 10 Norte 25 Norte 0 -- -- 47
2020-08-03 02:00:00 24.5 10 Norte 22 Norte 0 -- -- 47
2020-08-03 01:00:00 25.6 5 Norte 13 Norte 0 -- -- 31
2020-08-03 00:00:00 26.8 2 Oeste 50 Oeste 0 -- -- 23
2020-08-02 23:00:00 28.4 2 Oeste 8 Noroeste 0 -- -- 20
2020-08-02 22:00:00 30.1 4 Oeste 10 Oeste 0 -- -- 17
2020-08-02 21:00:00 32.3 4 Oeste 21 Noroeste 0 -- -- 17
2020-08-02 20:00:00 34.7 9 Oeste 23 Oeste 0 -- -- 17
2020-08-02 19:00:00 36.5 8 Oeste 35 Noroeste 0 -- -- 14
2020-08-02 18:00:00 37.2 15 Oeste 35 Sudoeste 0 -- -- 14
2020-08-02 17:00:00 38.1 10 Oeste 29 Oeste 0 -- -- 16
2020-08-02 16:00:00 37.2 12 Oeste 28 Sudoeste 0 -- -- 16
2020-08-02 15:00:00 36.4 12 Oeste 33 Sudoeste 0 -- -- 19
2020-08-02 14:00:00 35 8 Sudoeste 34 Sudoeste 0 -- -- 24
2020-08-02 13:00:00 34 6 Oeste 20 Oeste 0 -- -- 25
2020-08-02 12:00:00 32.9 6 Oeste 16 Oeste 0 -- -- 28
2020-08-02 11:00:00 30 5 Sudoeste 13 Oeste 0 -- -- 28
2020-08-02 10:00:00 26.2 4 Sur 8 Sur 0 -- -- 27
2020-08-02 09:00:00 22.6 3 Sur 6 Sur 0 -- -- 29
2020-08-02 08:00:00 18.9 2 Sudeste 6 Sur 0 -- -- 41
2020-08-02 07:00:00 19.3 4 Nordeste 10 Nordeste 0 -- -- 38
2020-08-02 06:00:00 20 6 Nordeste 9 Este 0 -- -- 37
2020-08-02 05:00:00 20.7 4 Nordeste 10 Nordeste 0 -- -- 35
2020-08-02 04:00:00 21.6 6 Nordeste 9 Nordeste 0 -- -- 32
2020-08-02 03:00:00 22.7 5 Nordeste 9 Nordeste 0 -- -- 28
2020-08-02 02:00:00 23.2 4 Nordeste 7 Nordeste 0 -- -- 26
2020-08-02 01:00:00 23.9 3 Este 9 Nordeste 0 -- -- 24
2020-08-02 00:00:00 25.4 6 Nordeste 9 Nordeste 0 -- -- 20
2020-08-01 23:00:00 28.6 4 Nordeste 7 Este 0 -- -- 18
2020-08-01 22:00:00 31.2 0 Calma 11 Norte 0 -- -- 15
2020-08-01 21:00:00 34 5 Noroeste 24 Oeste 0 -- -- 14
2020-08-01 20:00:00 36.2 11 Oeste 33 Oeste 0 -- -- 10
2020-08-01 19:00:00 37.9 13 Oeste 35 Oeste 0 -- -- 9
2020-08-01 18:00:00 38.9 12 Oeste 32 Oeste 0 -- -- 9
2020-08-01 17:00:00 39 13 Oeste 38 Oeste 0 -- -- 11
2020-08-01 16:00:00 38.8 12 Noroeste 31 Oeste 0 -- -- 12
2020-08-01 15:00:00 37.7 8 Oeste 26 Noroeste 0 -- -- 16
2020-08-01 14:00:00 36.5 10 Oeste 27 Oeste 0 -- -- 18
2020-08-01 13:00:00 35.2 7 Oeste 26 Sudoeste 0 -- -- 23
2020-08-01 12:00:00 33.8 6 Oeste 20 Oeste 0 -- -- 25
2020-08-01 11:00:00 31.5 4 Oeste 12 Sur 0 -- -- 26
2020-08-01 10:00:00 28.6 2 Sudoeste 5 Sudoeste 0 -- -- 27
2020-08-01 09:00:00 24.5 0 Calma 6 Nordeste 0 -- -- 44
2020-08-01 08:00:00 22.6 4 Nordeste 6 Nordeste 0 -- -- 40
2020-08-01 07:00:00 23.7 0 Calma 5 Sudoeste 0 -- -- 37
2020-08-01 06:00:00 25.4 0 Calma 12 Sur 0 -- -- 33
2020-08-01 05:00:00 25.9 5 Sudeste 9 Sur 0 -- -- 30
2020-08-01 04:00:00 25.3 5 Nordeste 9 Nordeste 0 -- -- 27
2020-08-01 03:00:00 26.9 3 Sudeste 12 Sudeste 0 -- -- 24
2020-08-01 02:00:00 26.9 5 Sur 13 Nordeste 0 -- -- 20
2020-08-01 01:00:00 27.4 4 Nordeste 12 Este 0 -- -- 23
2020-08-01 00:00:00 28.4 5 Nordeste 9 Nordeste 0 -- -- 24
2020-07-31 23:00:00 30.1 2 Nordeste 6 Nordeste 0 -- -- 23
2020-07-31 22:00:00 32.8 3 Este 8 Sudoeste 0 -- -- 21
2020-07-31 21:00:00 35.7 3 Sudoeste 16 Sudoeste 0 -- -- 18
2020-07-31 20:00:00 37.2 7 Sudoeste 20 Oeste 0 -- -- 17
2020-07-31 19:00:00 37.8 4 Sudoeste 23 Oeste 0 -- -- 19
2020-07-31 18:00:00 38.4 4 Sur 26 Noroeste 0 -- -- 19
2020-07-31 17:00:00 38.5 5 Noroeste 19 Oeste 0 -- -- 20
2020-07-31 16:00:00 38 6 Noroeste 24 Sudoeste 0 -- -- 20
2020-07-31 15:00:00 37.6 4 Oeste 19 Sudoeste 0 -- -- 21
2020-07-31 14:00:00 36 9 Oeste 24 Sudoeste 0 -- -- 25
2020-07-31 13:00:00 34.6 8 Sur 19 Sudoeste 0 -- -- 30
2020-07-31 12:00:00 33.3 5 Oeste 14 Oeste 0 -- -- 35
2020-07-31 11:00:00 31.3 3 Sur 10 Sur 0 -- -- 37
2020-07-31 10:00:00 28.6 3 Sur 14 Sudeste 0 -- -- 42
2020-07-31 09:00:00 25.2 8 Sudeste 22 Sudeste 0 -- -- 53
2020-07-31 08:00:00 23.1 12 Sudeste 26 Sudeste 0 -- -- 58
2020-07-31 07:00:00 23 13 Sudeste 28 Sudeste 0 -- -- 58
2020-07-31 06:00:00 23.8 15 Sudeste 33 Sudeste 0 -- -- 57
2020-07-31 05:00:00 23.9 17 Sudeste 30 Sudeste 0 -- -- 58
2020-07-31 04:00:00 24.2 14 Sudeste 32 Sudeste 0 -- -- 57
2020-07-31 03:00:00 25.1 15 Sudeste 35 Este 0 -- -- 52
2020-07-31 02:00:00 25.2 18 Sudeste 34 Sudeste 0 -- -- 50
2020-07-31 01:00:00 25.1 17 Sudeste 31 Sudeste 0 -- -- 49
2020-07-31 00:00:00 27.3 18 Sudeste 31 Sudeste 0 -- -- 37
2020-07-30 23:00:00 28.8 11 Sudeste 25 Sudeste 0 -- -- 31
2020-07-30 22:00:00 29.5 18 Sudeste 37 Sudeste 0 -- -- 30
2020-07-30 21:00:00 30.2 23 Sudeste 55 Este 0 -- -- 31
2020-07-30 20:00:00 33.2 30 Sudeste 55 Sudeste 0 -- -- 27
2020-07-30 19:00:00 34.9 26 Sudeste 48 Sudeste 0 -- -- 27
2020-07-30 18:00:00 34.2 24 Sudeste 41 Sudeste 1.4 -- -- 29
2020-07-30 17:00:00 35.6 19 Sudeste 44 Sudeste 0 -- -- 24
2020-07-30 16:00:00 37.7 22 Sudeste 46 Sudeste 0 -- -- 21
2020-07-30 15:00:00 36 28 Sudeste 45 Sudeste 0 -- -- 24
2020-07-30 14:00:00 35.1 22 Sudeste 40 Sudeste 0 -- -- 26
2020-07-30 13:00:00 33.6 21 Sudeste 41 Sudeste 0 -- -- 25
2020-07-30 12:00:00 31.7 18 Sudeste 40 Sudeste 0 -- -- 30
2020-07-30 11:00:00 29.2 18 Sudeste 36 Sudeste 0 -- -- 35
2020-07-30 10:00:00 26.4 14 Sudeste 30 Este 0 -- -- 41
2020-07-30 09:00:00 24.2 13 Este 26 Sudeste 0 -- -- 46
2020-07-30 08:00:00 22.7 15 Este 32 Este 0 -- -- 50
2020-07-30 07:00:00 22.5 18 Este 32 Este 0 -- -- 50
2020-07-30 06:00:00 22.6 18 Este 36 Sudeste 0 -- -- 55
2020-07-30 05:00:00 22.8 22 Sudeste 38 Este 0 -- -- 54
2020-07-30 04:00:00 23.4 22 Sudeste 39 Sudeste 0 -- -- 52
2020-07-30 03:00:00 24 24 Sudeste 42 Sudeste 0 -- -- 46
2020-07-30 02:00:00 24.4 22 Este 44 Este 0 -- -- 48
2020-07-30 01:00:00 25.5 21 Este 41 Este 0 -- -- 46
2020-07-30 00:00:00 26.4 25 Este 48 Este 0 -- -- 50
2020-07-29 23:00:00 28.1 24 Este 47 Este 0 -- -- 50
2020-07-29 22:00:00 29.7 21 Este 40 Sudeste 0 -- -- 47
2020-07-29 21:00:00 32.6 20 Sudeste 34 Este 0 -- -- 40
2020-07-29 20:00:00 -- 11 Este 27 Sudeste 0 -- -- --
2020-07-29 19:00:00 36.2 14 Sudeste 33 Sudeste 0 -- -- 26
2020-07-29 18:00:00 36.4 14 Sudeste 28 Sudeste 0 -- -- 26
2020-07-29 17:00:00 36.7 6 Este 27 Sudeste 0 -- -- 25
2020-07-29 16:00:00 35.8 13 Sudeste 28 Sudeste 0 -- -- 25
2020-07-29 15:00:00 34.7 17 Sudeste 33 Sudeste 0 -- -- 31
2020-07-29 14:00:00 33 19 Sudeste 33 Sudeste 0 -- -- 36
2020-07-29 13:00:00 31.8 19 Sudeste 31 Sudeste 0 -- -- 38
2020-07-29 12:00:00 30 18 Sudeste 33 Sudeste 0 -- -- 39
2020-07-29 11:00:00 27.8 18 Sudeste 38 Sudeste 0 -- -- 42
2020-07-29 10:00:00 26.7 15 Sudeste 31 Sudeste 0 -- -- 41
2020-07-29 09:00:00 24.4 17 Este 32 Este 0 -- -- 45
2020-07-29 08:00:00 22.7 18 Este 31 Este 0 -- -- 49
2020-07-29 07:00:00 22.7 16 Este 32 Sudeste 0 -- -- 48
2020-07-29 06:00:00 23 17 Este 28 Este 0 -- -- 47
2020-07-29 05:00:00 23.4 15 Este 28 Este 0 -- -- 45
2020-07-29 04:00:00 24 16 Este 31 Sudeste 0 -- -- 42
2020-07-29 03:00:00 24.6 19 Este 35 Este 0 -- -- 39
2020-07-29 02:00:00 25.2 20 Este 35 Este 0 -- -- 39
2020-07-29 01:00:00 26.2 18 Este 30 Este 0 -- -- 40
2020-07-29 00:00:00 27.5 14 Este 31 Este 0 -- -- 44
2020-07-28 23:00:00 29.8 14 Este 24 Sudeste 0 -- -- 39
2020-07-28 22:00:00 31.6 5 Nordeste 12 Noroeste 0 -- -- 28
2020-07-28 21:00:00 33.4 5 Noroeste 15 Noroeste 0 -- -- 25
2020-07-28 20:00:00 35 7 Oeste 22 Oeste 0 -- -- 22
2020-07-28 19:00:00 36.5 8 Oeste 27 Sudoeste 0 -- -- 21
2020-07-28 18:00:00 36.8 10 Oeste 31 Oeste 0 -- -- 21
2020-07-28 17:00:00 37.4 13 Oeste 32 Sudoeste 0 -- -- 21
2020-07-28 16:00:00 36.2 12 Sur 30 Sudoeste 0 -- -- 22
2020-07-28 15:00:00 35.9 11 Sudoeste 28 Sur 0 -- -- 24
2020-07-28 14:00:00 35.1 10 Sudoeste 26 Sudoeste 0 -- -- 26
2020-07-28 13:00:00 33.8 5 Sur 20 Sudoeste 0 -- -- 29
2020-07-28 12:00:00 32.5 6 Sudoeste 13 Sudoeste 0 -- -- 33
2020-07-28 11:00:00 30.6 4 Sudoeste 12 Sudoeste 0 -- -- 34
2020-07-28 10:00:00 28.7 4 Sudoeste 10 Sudoeste 0 -- -- 37
2020-07-28 09:00:00 25.1 3 Sur 7 Sur 0 -- -- 43
2020-07-28 08:00:00 -- -- -- -- -- 0 -- -- --
2020-07-28 07:00:00 -- -- -- -- -- 0 -- -- --
2020-07-28 06:00:00 -- -- -- -- -- 0 -- -- --
2020-07-28 05:00:00 -- -- -- -- -- 0 -- -- --
2020-07-28 04:00:00 -- -- -- -- -- 0 -- -- --
2020-07-28 03:00:00 -- -- -- -- -- 0 -- -- --
2020-07-28 02:00:00 -- -- -- -- -- 0 -- -- --
2020-07-28 01:00:00 -- -- -- -- -- 0 -- -- --
2020-07-28 00:00:00 -- -- -- -- -- 0 -- -- --
2020-07-27 23:00:00 30.5 17 Sudeste 41 Sudeste 0 -- -- 31
2020-07-27 22:00:00 32.5 17 Sudeste 29 Sudeste 0 -- -- 29
2020-07-27 21:00:00 34.4 15 Sudeste 35 Sudeste 0 -- -- 27
2020-07-27 20:00:00 37.3 18 Sudeste 31 Sudeste 0 -- -- 21
2020-07-27 19:00:00 38.9 4 Sudeste 18 Sudoeste 0 -- -- 19
2020-07-27 18:00:00 39.7 4 Sur 14 Sudoeste 0 -- -- 20
2020-07-27 17:00:00 40 5 Sudoeste 17 Noroeste 0 -- -- 20
2020-07-27 16:00:00 38.6 6 Sur 19 Sur 0 -- -- 19
2020-07-27 15:00:00 37.7 7 Sur 17 Sudeste 0 -- -- 21
2020-07-27 14:00:00 36.6 9 Sudeste 21 Sur 0 -- -- 23
2020-07-27 13:00:00 34.9 7 Sudeste 19 Sur 0 -- -- 26
2020-07-27 12:00:00 32.8 11 Sudeste 22 Sudeste 0 -- -- 30
2020-07-27 09:00:00 -- -- -- -- -- -- -- -- --
2020-07-27 08:00:00 -- -- -- -- -- -- -- -- --
2020-07-27 07:00:00 22.6 19 Sudeste 37 Sudeste 0 -- -- 55
2020-07-27 06:00:00 23.1 18 Sudeste 39 Sudeste 0 -- -- 53
2020-07-27 05:00:00 23.6 21 Sudeste 43 Este 0 -- -- 53
2020-07-27 04:00:00 24.1 22 Sudeste 42 Este 0 -- -- 55
2020-07-27 03:00:00 24.8 26 Sudeste 45 Este 0 -- -- 56
2020-07-27 02:00:00 26.2 22 Sudeste 44 Este 0 -- -- 53
2020-07-27 01:00:00 28.5 24 Sudeste 50 Sudeste 0 -- -- 33
2020-07-27 00:00:00 29.9 22 Sudeste 39 Sudeste 0 -- -- 37
2020-07-26 23:00:00 32.2 14 Sudeste 27 Sudeste 0 -- -- 29
2020-07-26 22:00:00 33.3 4 Este 9 Sudeste 0 -- -- 21
2020-07-26 21:00:00 35.9 0 Calma 10 Sur 0 -- -- 20
2020-07-26 20:00:00 37.3 4 Sudoeste 67 Oeste 0 -- -- 17
2020-07-26 19:00:00 38.6 6 Noroeste 22 Sudoeste 0 -- -- 15
2020-07-26 18:00:00 39 8 Oeste 19 Noroeste 0 -- -- 15
2020-07-26 17:00:00 39.1 8 Sudoeste 19 Sudoeste 0 -- -- 15
2020-07-26 16:00:00 38.1 7 Sur 20 Oeste 0 -- -- 18
2020-07-26 15:00:00 37.8 8 Oeste 21 Sudoeste 0 -- -- 22
2020-07-26 14:00:00 36.9 5 Oeste 13 Sur 0 -- -- 24
2020-07-26 13:00:00 35 6 Sur 14 Sur 0 -- -- 25
2020-07-26 12:00:00 32.7 4 Sudoeste 12 Sur 0 -- -- 31
2020-07-26 11:00:00 29.3 5 Sudeste 13 Sudeste 0 -- -- 42
2020-07-26 10:00:00 26.5 10 Sudeste 21 Sudeste 0 -- -- 52
2020-07-26 09:00:00 24.4 9 Sudeste 19 Este 0 -- -- 57
2020-07-26 08:00:00 21.6 5 Sudeste 16 Este 0 -- -- 69
2020-07-26 07:00:00 21.5 0 Calma 5 Nordeste 0 -- -- 66
2020-07-26 06:00:00 23 2 Nordeste 7 Norte 0 -- -- 61
2020-07-26 05:00:00 23.6 3 Norte 24 Sudeste 0 -- -- 61
2020-07-26 04:00:00 24.5 13 Sudeste 25 Sudeste 0 -- -- 57
2020-07-26 03:00:00 25.5 12 Sudeste 22 Este 0 -- -- 52
2020-07-26 02:00:00 26.7 5 Este 14 Este 0 -- -- 47
2020-07-26 01:00:00 27.7 3 Nordeste 9 Este 0 -- -- 43
2020-07-26 00:00:00 29.7 3 Nordeste 13 Este 0 -- -- 38
2020-07-25 23:00:00 31.4 7 Sudeste 16 Sudeste 0 -- -- 32
2020-07-25 22:00:00 32.1 2 Norte 6 Sudoeste 0 -- -- 26
2020-07-25 21:00:00 34 2 Sudoeste 12 Noroeste 0 -- -- 23
2020-07-25 20:00:00 35.7 4 Oeste 25 Oeste 0 -- -- 22
2020-07-25 19:00:00 36.7 9 Oeste 23 Oeste 0 -- -- 19
2020-07-25 18:00:00 37.1 11 Oeste 29 Sudoeste 0 -- -- 17
2020-07-25 17:00:00 37.4 9 Oeste 27 Norte 0 -- -- 20
2020-07-25 16:00:00 37.1 9 Sudoeste 28 Oeste 0 -- -- 20
2020-07-25 15:00:00 36.2 5 Noroeste 19 Sudoeste 0 -- -- 22
2020-07-25 14:00:00 34 6 Sudoeste 17 Sudeste 0 -- -- 26
2020-07-25 13:00:00 32.2 6 Sudeste 18 Sudeste 0 -- -- 31
2020-07-25 12:00:00 29.8 10 Sudeste 23 Sudeste 0 -- -- 37
2020-07-25 11:00:00 27.1 14 Sudeste 27 Este 0 -- -- 44
2020-07-25 10:00:00 24.8 14 Sudeste 31 Este 0 -- -- 48
2020-07-25 09:00:00 22.6 18 Sudeste 32 Sudeste 0 -- -- 49
2020-07-25 08:00:00 21.3 12 Este 30 Este 0 -- -- 54
2020-07-25 07:00:00 21.5 17 Este 29 Este 0 -- -- 54
2020-07-25 06:00:00 21.9 14 Sudeste 26 Este 0 -- -- 54
2020-07-25 05:00:00 22.2 14 Sudeste 31 Este 0 -- -- 55
2020-07-25 04:00:00 22.7 18 Este 35 Sudeste 0 -- -- 57
2020-07-25 03:00:00 23.5 18 Este 33 Este 0 -- -- 60
2020-07-25 02:00:00 24.6 19 Este 32 Este 0 -- -- 59
2020-07-25 01:00:00 27.3 12 Este 23 Este 0 -- -- 54
2020-07-25 00:00:00 28.2 6 Nordeste 12 Este 0 -- -- 33
2020-07-24 23:00:00 30.2 3 Nordeste 9 Norte 0 -- -- 28
2020-07-24 22:00:00 32.2 2 Noroeste 13 Noroeste 0 -- -- 24
2020-07-24 21:00:00 34.2 5 Noroeste 22 Oeste 0 -- -- 24
2020-07-24 20:00:00 35.2 5 Oeste 18 Sur 0 -- -- 25
2020-07-24 19:00:00 35.8 4 Sudoeste 17 Oeste 0 -- -- 25
2020-07-24 18:00:00 36.4 6 Sudoeste 21 Norte 0 -- -- 23
2020-07-24 17:00:00 37.1 8 Oeste 27 Sur 0 -- -- 23
2020-07-24 16:00:00 36.6 10 Noroeste 25 Noroeste 0 -- -- 24
2020-07-24 15:00:00 36.5 10 Oeste 22 Noroeste 0 -- -- 25
2020-07-24 14:00:00 35.2 8 Oeste 20 Oeste 0 -- -- 27
2020-07-24 13:00:00 34.4 5 Noroeste 13 Sudoeste 0 -- -- 31
2020-07-24 12:00:00 32.4 4 Sudoeste 9 Oeste 0 -- -- 32
2020-07-24 11:00:00 29.6 4 Sudeste 8 Este 0 -- -- 35
2020-07-24 10:00:00 26.6 3 Sur 14 Sudeste 0 -- -- 39
2020-07-24 09:00:00 24.1 8 Sudeste 17 Este 0 -- -- 40
2020-07-24 08:00:00 21.6 5 Este 11 Este 0 -- -- 43
2020-07-24 07:00:00 21.4 0 Calma 5 Sudoeste 0 -- -- 50
2020-07-24 06:00:00 22.1 0 Calma 8 Sudeste 0 -- -- 47
2020-07-24 05:00:00 23 3 Norte 13 Sudeste 0 -- -- 44
2020-07-24 04:00:00 23.7 4 Norte 12 Nordeste 0 -- -- 41
2020-07-24 03:00:00 24.8 4 Nordeste 12 Este 0 -- -- 39
2020-07-24 02:00:00 24.8 5 Sudeste 10 Sudeste 0 -- -- 41
2020-07-24 01:00:00 25.1 7 Nordeste 10 Nordeste 0 -- -- 40
2020-07-24 00:00:00 26.2 6 Nordeste 9 Nordeste 0 -- -- 37
2020-07-23 23:00:00 28.1 5 Nordeste 8 Nordeste 0 -- -- 34
2020-07-23 22:00:00 30.7 2 Sudeste 9 Noroeste 0 -- -- 30
2020-07-23 21:00:00 32.6 5 Noroeste 18 Noroeste 0 -- -- 27
2020-07-23 20:00:00 33.9 8 Noroeste 21 Oeste 0 -- -- 25
2020-07-23 19:00:00 35 6 Oeste 26 Noroeste 0 -- -- 25
2020-07-23 18:00:00 35.5 8 Oeste 23 Sudoeste 0 -- -- 24
2020-07-23 17:00:00 35.8 7 Noroeste 26 Oeste 0 -- -- 25
2020-07-23 16:00:00 35.7 8 Norte 22 Norte 0 -- -- 25
2020-07-23 15:00:00 35 9 Oeste 24 Oeste 0 -- -- 25
2020-07-23 14:00:00 34.1 5 Noroeste 20 Oeste 0 -- -- 31
2020-07-23 13:00:00 32.8 4 Oeste 16 Oeste 0 -- -- 34
2020-07-23 12:00:00 30.6 4 Oeste 10 Oeste 0 -- -- 37
2020-07-23 11:00:00 28.4 4 Sur 8 Sudeste 0 -- -- 39
2020-07-23 10:00:00 25.6 4 Sudeste 10 Sudeste 0 -- -- 44
2020-07-23 09:00:00 22.5 0 Calma 5 Oeste 0 -- -- 48
2020-07-23 08:00:00 19.5 2 Oeste 5 Sudeste 0 -- -- 46
2020-07-23 07:00:00 20 2 Norte 18 Este 0 -- -- 41
2020-07-23 06:00:00 20.8 9 Este 16 Este 0 -- -- 38
2020-07-23 05:00:00 21.1 9 Este 17 Este 0 -- -- 36
2020-07-23 04:00:00 21.4 7 Este 17 Este 0 -- -- 36
2020-07-23 03:00:00 21.9 6 Este 17 Este 0 -- -- 39
2020-07-23 02:00:00 22.7 7 Este 28 Sudeste 0 -- -- 39
2020-07-23 01:00:00 23 15 Este 24 Sudeste 0 -- -- 42
2020-07-23 00:00:00 23.9 13 Sudeste 23 Sudeste 0 -- -- 43
2020-07-22 23:00:00 25.1 14 Este 23 Este 0 -- -- 42
2020-07-22 22:00:00 26.9 11 Sudeste 23 Sudeste 0 -- -- 40
2020-07-22 21:00:00 28.7 9 Este 23 Este 0 -- -- 37
2020-07-22 20:00:00 29.4 12 Este 26 Este 0 -- -- 36
2020-07-22 19:00:00 30.5 15 Sudeste 36 Sudeste 0 -- -- 34
2020-07-22 18:00:00 32.5 8 Sur 19 Sur 0 -- -- 29
2020-07-22 17:00:00 32.1 4 Este 17 Sur 0 -- -- 30
2020-07-22 16:00:00 31.2 10 Sur 30 Sudeste 0 -- -- 33
2020-07-22 15:00:00 29.9 16 Sudeste 30 Sur 0 -- -- 38
2020-07-22 14:00:00 29.4 15 Sudeste 29 Sudeste 0 -- -- 35
2020-07-22 13:00:00 28.1 15 Sudeste 28 Sudeste 0 -- -- 36
2020-07-22 12:00:00 26.5 16 Sudeste 32 Sudeste 0 -- -- 42
2020-07-22 11:00:00 25 18 Sudeste 35 Este 0 -- -- 46
2020-07-22 10:00:00 23.1 19 Sudeste 34 Sudeste 0 -- -- 52
2020-07-22 09:00:00 21.1 18 Sudeste 36 Este 0 -- -- 56
2020-07-22 08:00:00 19.9 16 Este 32 Este 0 -- -- 61
2020-07-22 07:00:00 19.5 19 Este 36 Este 0 -- -- 64
2020-07-22 06:00:00 20.5 20 Este 33 Este 0 -- -- 60
2020-07-22 05:00:00 20.9 19 Este 36 Este 0 -- -- 59
2020-07-22 04:00:00 21.2 19 Sudeste 39 Este 0 -- -- 58
2020-07-22 03:00:00 21.9 19 Sudeste 37 Sudeste 0 -- -- 55
2020-07-22 02:00:00 23.1 19 Sudeste 40 Sudeste 0 -- -- 49
2020-07-22 01:00:00 23.8 26 Sudeste 40 Este 0 -- -- 47
2020-07-22 00:00:00 24.5 24 Sudeste 41 Este 0 -- -- 45
2020-07-21 23:00:00 25.9 24 Sudeste 39 Sudeste 0 -- -- 49
2020-07-21 22:00:00 28.5 18 Este 31 Este 0 -- -- 44
2020-07-21 21:00:00 30.3 14 Sudeste 41 Sudeste 0 -- -- 31
2020-07-21 20:00:00 32.3 23 Sudeste 38 Sudeste 0 -- -- 27
2020-07-21 19:00:00 33.4 20 Sudeste 37 Sudeste 0 -- -- 24
2020-07-21 18:00:00 34.5 20 Sudeste 46 Sudeste 0 -- -- 23
2020-07-21 17:00:00 34.9 26 Sudeste 46 Sudeste 0 -- -- 21
2020-07-21 16:00:00 34.2 15 Sudeste 39 Sudeste 0 -- -- 22
2020-07-21 15:00:00 33 21 Sudeste 37 Sudeste 0 -- -- 24
2020-07-21 14:00:00 31.7 22 Sudeste 41 Sudeste 0 -- -- 30
2020-07-21 13:00:00 31.4 19 Sudeste 41 Sudeste 0 -- -- 31
2020-07-21 12:00:00 29.2 22 Sudeste 41 Este 0 -- -- 36
2020-07-21 11:00:00 27.2 21 Sudeste 35 Este 0 -- -- 39
2020-07-21 10:00:00 24.9 18 Sudeste 37 Sudeste 0 -- -- 43
2020-07-21 09:00:00 21.9 22 Sudeste 38 Este 0 -- -- 60
2020-07-21 08:00:00 20 22 Sudeste 39 Este 0 -- -- 70
2020-07-21 07:00:00 19.7 21 Sudeste 36 Este 0 -- -- 73
2020-07-21 06:00:00 20.2 23 Sudeste 41 Este 0 -- -- 69
2020-07-21 05:00:00 20.2 22 Sudeste 41 Este 0 -- -- 70
2020-07-21 04:00:00 20.6 24 Sudeste 45 Sudeste 0 -- -- 68
2020-07-21 03:00:00 21.6 25 Este 42 Sudeste 0 -- -- 70
2020-07-21 02:00:00 22.8 22 Sudeste 41 Este 0 -- -- 69
2020-07-21 01:00:00 24.4 21 Sudeste 36 Este 0 -- -- 67
2020-07-21 00:00:00 27.2 19 Sudeste 42 Sudeste 0 -- -- 43
2020-07-20 23:00:00 28.9 17 Sudeste 34 Sudeste 0 -- -- 43
2020-07-20 22:00:00 30.8 9 Sudeste 18 Sudeste 0 -- -- 36
2020-07-20 21:00:00 32.6 2 Nordeste 9 Noroeste 0 -- -- 22
2020-07-20 20:00:00 34.1 3 Oeste 10 Oeste 0 -- -- 22
2020-07-20 19:00:00 35.6 3 Oeste 14 Norte 0 -- -- 20
2020-07-20 18:00:00 35.9 8 Noroeste 21 Sudoeste 0 -- -- 20
2020-07-20 17:00:00 36.3 7 Sur 18 Sudoeste 0 -- -- 17
2020-07-20 16:00:00 36.1 8 Sudoeste 25 Sudoeste 0 -- -- 17
2020-07-20 15:00:00 34.6 9 Sur 22 Sur 0 -- -- 21
2020-07-20 14:00:00 33.2 12 Sur 22 Sudeste 0 -- -- 23
2020-07-20 13:00:00 32 9 Sur 18 Sudeste 0 -- -- 31
2020-07-20 12:00:00 30.3 9 Sudeste 19 Sudeste 0 -- -- 38
2020-07-20 11:00:00 28.1 10 Sudeste 21 Sudeste 0 -- -- 44
2020-07-20 10:00:00 25.2 12 Sudeste 24 Este 0 -- -- 53
2020-07-20 09:00:00 22.4 14 Este 25 Este 0 -- -- 64
2020-07-20 08:00:00 20.6 12 Sudeste 26 Sudeste 0 -- -- 70
2020-07-20 07:00:00 20.3 13 Sudeste 24 Sudeste 0 -- -- 67
2020-07-20 06:00:00 20.9 6 Sudeste 12 Este 0 -- -- 59
2020-07-20 05:00:00 19.9 4 Este 9 Nordeste 0 -- -- 61
2020-07-20 04:00:00 20.5 5 Nordeste 9 Nordeste 0 -- -- 58
2020-07-20 03:00:00 22.3 4 Este 6 Nordeste 0 -- -- 53
2020-07-20 02:00:00 23.9 4 Sudeste 17 Sudeste 0 -- -- 49
2020-07-20 01:00:00 24.3 9 Sudeste 30 Sudeste 0 -- -- 49
2020-07-20 00:00:00 24.6 16 Sudeste 30 Sudeste 0 -- -- 51
2020-07-19 23:00:00 25.7 15 Sudeste 32 Sudeste 0 -- -- 51
2020-07-19 22:00:00 29.2 6 Sudeste 14 Sudeste 0 -- -- 34
2020-07-19 21:00:00 31 4 Nordeste 19 Este 0 -- -- 31
2020-07-19 20:00:00 32.1 6 Este 24 Sudoeste 0 -- -- 28
2020-07-19 19:00:00 31.4 13 Sudoeste 47 Sudoeste 0 -- -- 25
2020-07-19 18:00:00 34.8 9 Oeste 20 Oeste 0 -- -- 24
2020-07-19 17:00:00 36.1 8 Sudoeste 26 Oeste 0 -- -- 23
2020-07-19 16:00:00 36.8 7 Oeste 21 Sudoeste 0 -- -- 22
2020-07-19 15:00:00 35.5 10 Sudoeste 23 Oeste 0 -- -- 22
2020-07-19 14:00:00 33.9 6 Sudoeste 17 Sudoeste 0 -- -- 29
2020-07-19 13:00:00 31.7 8 Sudoeste 23 Sur 0 -- -- 39
2020-07-19 12:00:00 29.4 8 Sur 20 Sur 0 -- -- 44
2020-07-19 11:00:00 26.8 8 Sur 21 Sudeste 0 -- -- 52
2020-07-19 10:00:00 24.1 12 Sudeste 24 Sudeste 0 -- -- 62
2020-07-19 09:00:00 21.4 13 Sudeste 29 Sudeste 0 -- -- 73
2020-07-19 08:00:00 19.5 13 Sudeste 27 Este 0 -- -- 80
2020-07-19 07:00:00 19.6 13 Este 28 Este 0 -- -- 79
2020-07-19 06:00:00 20 13 Este 26 Este 0 -- -- 78
2020-07-19 05:00:00 20.3 17 Este 32 Sudeste 0 -- -- 78
2020-07-19 04:00:00 21 19 Sudeste 36 Sudeste 0 -- -- 77
2020-07-19 03:00:00 22.1 20 Este 33 Este 0 -- -- 67
2020-07-19 02:00:00 23.2 17 Sudeste 28 Este 0 -- -- 62
2020-07-19 01:00:00 24 13 Este 21 Sudeste 0 -- -- 41
2020-07-19 00:00:00 24.2 6 Nordeste 12 Nordeste 0 -- -- 30
2020-07-18 23:00:00 26 6 Nordeste 11 Este 0 -- -- 26
2020-07-18 22:00:00 29.2 5 Nordeste 9 Este 0 -- -- 21
2020-07-18 21:00:00 31.6 4 Noroeste 15 Oeste 0 -- -- 15
2020-07-18 20:00:00 33.3 6 Noroeste 23 Noroeste 0 -- -- 18
2020-07-18 19:00:00 34.6 4 Este 18 Oeste 0 -- -- 20
2020-07-18 18:00:00 35.1 9 Noroeste 22 Oeste 0 -- -- 22
2020-07-18 17:00:00 35.1 6 Oeste 30 Sudeste 0 -- -- 21
2020-07-18 16:00:00 34.5 6 Noroeste 18 Sudoeste 0 -- -- 25
2020-07-18 15:00:00 33 5 Noroeste 15 Norte 0 -- -- 32
2020-07-18 14:00:00 30.9 6 Sudoeste 18 Sur 0 -- -- 36
2020-07-18 13:00:00 28.7 9 Sur 21 Sudeste 0 -- -- 45
2020-07-18 12:00:00 26.6 12 Sudeste 27 Sudeste 0 -- -- 53
2020-07-18 11:00:00 24.1 15 Sudeste 31 Este 0 -- -- 62
2020-07-18 10:00:00 21.8 17 Sudeste 36 Sudeste 0 -- -- 70
2020-07-18 09:00:00 20.3 19 Sudeste 34 Sudeste 0 -- -- 71
2020-07-18 08:00:00 18.7 10 Este 27 Este 0 -- -- 73
2020-07-18 07:00:00 18.7 7 Este 25 Este 0 -- -- 73
2020-07-18 06:00:00 18.9 11 Este 30 Este 0 -- -- 74
2020-07-18 05:00:00 19.4 14 Este 28 Sudeste 0 -- -- 71
2020-07-18 04:00:00 20.1 17 Sudeste 37 Este 0 -- -- 67
2020-07-18 03:00:00 20.8 21 Sudeste 45 Este 0 -- -- 68
2020-07-18 02:00:00 21.4 23 Sudeste 39 Este 0 -- -- 70
2020-07-18 01:00:00 22 20 Este 40 Este 0 -- -- 71
2020-07-18 00:00:00 23.4 18 Sudeste 32 Este 0 -- -- 68
2020-07-17 23:00:00 26.5 15 Este 31 Este 0 -- -- 47
2020-07-17 22:00:00 29.2 4 Nordeste 11 Nordeste 0 -- -- 24
2020-07-17 21:00:00 31.5 8 Norte 24 Noroeste 0 -- -- 20
2020-07-17 20:00:00 32.9 12 Norte 27 Noroeste 0 -- -- 19
2020-07-17 19:00:00 34.2 12 Noroeste 29 Noroeste 0 -- -- 20
2020-07-17 18:00:00 34.6 10 Noroeste 29 Noroeste 0 -- -- 26
2020-07-17 17:00:00 35 9 Noroeste 33 Noroeste 0 -- -- 26
2020-07-17 16:00:00 35 12 Oeste 28 Noroeste 0 -- -- 28
2020-07-17 15:00:00 34.1 8 Norte 18 Noroeste 0 -- -- 33
2020-07-17 14:00:00 32.5 3 Este 14 Norte 0 -- -- 36
2020-07-17 13:00:00 31.5 2 Oeste 12 Noroeste 0 -- -- 39
2020-07-17 12:00:00 29 4 Norte 16 Este 0 -- -- 46
2020-07-17 11:00:00 25.9 7 Sudeste 21 Sudeste 0 -- -- 53
2020-07-17 10:00:00 23.4 12 Sudeste 24 Sudeste 0 -- -- 60
2020-07-17 09:00:00 21.2 11 Sudeste 28 Sudeste 0 -- -- 69
2020-07-17 08:00:00 19.3 15 Este 32 Este 0 -- -- 78
2020-07-17 07:00:00 19.3 17 Sudeste 29 Este 0 -- -- 78
2020-07-17 06:00:00 19.6 17 Este 29 Este 0 -- -- 77
2020-07-17 05:00:00 20 15 Este 31 Este 0 -- -- 77
2020-07-17 04:00:00 20.6 17 Este 34 Sudeste 0 -- -- 76
2020-07-17 03:00:00 21.1 20 Este 38 Este 0 -- -- 74
2020-07-17 02:00:00 22 20 Este 37 Este 0 -- -- 72
2020-07-17 01:00:00 24.7 17 Este 26 Este 0 -- -- 59
2020-07-17 00:00:00 26.7 0 Calma 9 Sudeste 0 -- -- 40
2020-07-16 23:00:00 28 5 Sudeste 9 Este 0 -- -- 36
2020-07-16 22:00:00 29.4 6 Sudeste 10 Sudeste 0 -- -- 34
2020-07-16 21:00:00 31.3 6 Sur 15 Sudeste 0 -- -- 31
2020-07-16 20:00:00 32.3 5 Sur 13 Sudoeste 0 -- -- 29
2020-07-16 19:00:00 33.2 3 Norte 15 Noroeste 0 -- -- 31
2020-07-16 18:00:00 33.5 5 Oeste 16 Sudoeste 0 -- -- 30
2020-07-16 17:00:00 33.7 4 Noroeste 14 Nordeste 0 -- -- 30
2020-07-16 16:00:00 33 7 Norte 16 Nordeste 0 -- -- 31
2020-07-16 15:00:00 31.7 9 Sudeste 19 Sudeste 0 -- -- 32
2020-07-16 14:00:00 30.5 8 Sur 20 Sur 0 -- -- 35
2020-07-16 13:00:00 29 10 Sudeste 22 Sudeste 0 -- -- 42
2020-07-16 12:00:00 27.1 10 Sudeste 26 Sudeste 0 -- -- 46
2020-07-16 11:00:00 25.1 15 Sudeste 31 Este 0 -- -- 51
2020-07-16 10:00:00 23.1 15 Sudeste 30 Este 0 -- -- 58
2020-07-16 09:00:00 21.3 17 Sudeste 31 Sudeste 0 -- -- 64
2020-07-16 08:00:00 19.3 12 Este 27 Sudeste 0 -- -- 73
2020-07-16 07:00:00 19.1 12 Este 31 Este 0 -- -- 72
2020-07-16 06:00:00 19.3 13 Este 32 Este 0 -- -- 72
2020-07-16 05:00:00 19.6 18 Este 33 Este 0 -- -- 73
2020-07-16 04:00:00 20.1 16 Este 31 Sudeste 0 -- -- 75
2020-07-16 03:00:00 20.8 18 Este 31 Este 0 -- -- 74
2020-07-16 02:00:00 22.2 17 Este 29 Este 0 -- -- 63
2020-07-16 01:00:00 23.5 12 Este 24 Nordeste 0 -- -- 55
2020-07-16 00:00:00 24.2 4 Nordeste 10 Este 0 -- -- 49
2020-07-15 23:00:00 26 4 Este 9 Este 0 -- -- 43
2020-07-15 22:00:00 27.6 3 Sudeste 8 Este 0 -- -- 40
2020-07-15 21:00:00 29.3 3 Este 11 Sudeste 0 -- -- 35
2020-07-15 20:00:00 29.9 4 Sudeste 16 Este 0 -- -- 35
2020-07-15 19:00:00 30.3 4 Este 21 Sudeste 0 -- -- 34
2020-07-15 18:00:00 30.3 9 Sudeste 18 Sudeste 0 -- -- 37
2020-07-15 17:00:00 30.2 9 Sudeste 24 Sudeste 0 -- -- 37
2020-07-15 16:00:00 29.2 10 Sudeste 28 Sudeste 0 -- -- 42
2020-07-15 15:00:00 28.6 14 Sudeste 26 Sudeste 0 -- -- 45
2020-07-15 14:00:00 27.8 12 Sudeste 25 Sur 0 -- -- 45
2020-07-15 13:00:00 26.6 13 Sudeste 28 Este 0 -- -- 49
2020-07-15 12:00:00 25.2 13 Sudeste 28 Sudeste 0 -- -- 56
2020-07-15 11:00:00 22.7 15 Este 26 Este 0 -- -- 64
2020-07-15 10:00:00 20.5 14 Sudeste 27 Este 0 -- -- 73
2020-07-15 09:00:00 19.2 4 Sudeste 25 Este 0 -- -- 79
2020-07-15 08:00:00 17 13 Sudeste 28 Este 0 -- -- 84
2020-07-15 07:00:00 17 16 Este 31 Este 0 -- -- 81
2020-07-15 06:00:00 17.5 13 Este 30 Este 0 -- -- 82
2020-07-15 05:00:00 17.5 14 Este 26 Sudeste 0 -- -- 82
2020-07-15 04:00:00 17.7 12 Este 27 Este 0 -- -- 80
2020-07-15 03:00:00 17.8 12 Este 23 Este 0 -- -- 80
2020-07-15 02:00:00 17.8 6 Este 23 Este 0 -- -- 83
2020-07-15 01:00:00 18.1 13 Este 27 Este 0 -- -- 82
2020-07-15 00:00:00 18.1 17 Este 32 Sudeste 0 -- -- 82
2020-07-14 23:00:00 18.4 15 Sudeste 33 Sudeste 0 -- -- 82
2020-07-14 22:00:00 19.2 18 Sudeste 38 Este 0 -- -- 76
2020-07-14 21:00:00 19.6 18 Sudeste 41 Este 0 -- -- 73
2020-07-14 20:00:00 20.6 15 Sudeste 37 Este 0 -- -- 72
2020-07-14 19:00:00 21.8 13 Este 27 Sudeste 0.8 -- -- 72
2020-07-14 18:00:00 22.5 17 Sudeste 37 Sudeste 3.2 -- -- 73
2020-07-14 17:00:00 26.1 19 Sudeste 42 Sudeste 0.2 -- -- 57
2020-07-14 16:00:00 32 6 Sudoeste 12 Sur 0 -- -- 35
2020-07-14 15:00:00 30.5 5 Sudoeste 15 Sudeste 0 -- -- 39
2020-07-14 14:00:00 29.5 4 Sur 22 Sudeste 0 -- -- 42
2020-07-14 13:00:00 28.3 9 Sudeste 21 Sudeste 0 -- -- 44
2020-07-14 12:00:00 26.6 13 Sudeste 25 Sudeste 0 -- -- 49
2020-07-14 11:00:00 25.1 15 Sudeste 31 Sudeste 0 -- -- 52
2020-07-14 10:00:00 23.3 16 Sudeste 33 Sudeste 0 -- -- 58
2020-07-14 09:00:00 21.5 16 Sudeste 32 Este 0 -- -- 65
2020-07-14 08:00:00 19.9 19 Este -- -- -- -- -- 71
2020-07-14 07:00:00 19.8 19 Sudeste 33 Sudeste 0 -- -- 70
2020-07-14 06:00:00 20.2 19 Sudeste 37 Este 0 -- -- 68
2020-07-14 05:00:00 20.1 21 Este 37 Este 0 -- -- 66
2020-07-14 04:00:00 20.4 21 Este 36 Sudeste 0 -- -- 65
2020-07-14 03:00:00 21.1 19 Este 39 Este 0 -- -- 64
2020-07-14 02:00:00 21.8 21 Este 39 Este 0 -- -- 62
2020-07-14 01:00:00 -- -- -- -- -- 0 -- -- --
2020-07-14 00:00:00 -- 19 Sudeste 35 Sudeste 0 -- -- --
2020-07-13 23:00:00 27.4 14 Sudeste 24 Sudeste 0 -- -- 47
2020-07-13 22:00:00 28.8 6 Este 13 Este 0 -- -- 38
2020-07-13 21:00:00 30.7 8 Este 15 Este 0 -- -- 34
2020-07-13 20:00:00 31.8 6 Sur 13 Sur 0 -- -- 32
2020-07-13 19:00:00 32.6 7 Sur 18 Este 0 -- -- 31
2020-07-13 18:00:00 32.7 8 Sudeste 19 Sudeste 0 -- -- 32
2020-07-13 17:00:00 32.5 6 Sur 17 Este 0 -- -- 32
2020-07-13 16:00:00 31.5 5 Sudeste 18 Sudeste 0 -- -- 35
2020-07-13 15:00:00 30.4 10 Sur 22 Sudeste 0 -- -- 39
2020-07-13 14:00:00 29.3 12 Sudeste 27 Sur 0 -- -- 42
2020-07-13 13:00:00 28.2 9 Sudeste 25 Sudeste 0 -- -- 46
2020-07-13 12:00:00 26.3 10 Sudeste 21 Sudeste 0 -- -- 51
2020-07-13 11:00:00 24.7 12 Sudeste 25 Sudeste 0 -- -- 52
2020-07-13 10:00:00 22.9 14 Sudeste 27 Este 0 -- -- 57
2020-07-13 09:00:00 21.7 12 Sudeste 31 Este 0 -- -- 59
2020-07-13 08:00:00 20.1 15 Sudeste 33 Este 0 -- -- 68
2020-07-13 07:00:00 20.1 18 Este 35 Este 0 -- -- 67
2020-07-13 06:00:00 20.1 21 Sudeste 37 Este 0 -- -- 73
2020-07-13 05:00:00 19.9 21 Sudeste 37 Sudeste 0 -- -- 78
2020-07-13 04:00:00 19.8 23 Sudeste 40 Sudeste 0 -- -- 80
2020-07-13 03:00:00 20.1 20 Sudeste 37 Este 0 -- -- 79
2020-07-13 02:00:00 20.2 23 Este 44 Este 0 -- -- 78
2020-07-13 01:00:00 20.1 26 Este 42 Este 0 -- -- 82
2020-07-13 00:00:00 21.1 20 Este 37 Sudeste 0 -- -- 76
2020-07-12 23:00:00 22.3 15 Este 35 Este 0 -- -- 72
2020-07-12 22:00:00 23.1 18 Este 32 Este 0 -- -- 67
2020-07-12 21:00:00 24.5 17 Sudeste 37 Sudeste 0 -- -- 59
2020-07-12 20:00:00 25.6 19 Sudeste 43 Sudeste 0 -- -- 55
2020-07-12 19:00:00 25.8 23 Sudeste 44 Sudeste 0 -- -- 62
2020-07-12 18:00:00 25.4 23 Sudeste 41 Sudeste 0 -- -- 65
2020-07-12 17:00:00 25.1 17 Sudeste 41 Sudeste 0 -- -- 56
2020-07-12 16:00:00 25.7 21 Sudeste 40 Sudeste 0 -- -- 62
2020-07-12 15:00:00 24.2 12 Sudeste 32 Sur 2 -- -- 69
2020-07-12 14:00:00 26 17 Sudeste 35 Sur 0.4 -- -- 58
2020-07-12 13:00:00 27.1 13 Sudeste 30 Sudeste 0.2 -- -- 51
2020-07-12 12:00:00 27.9 14 Sudeste 27 Sudeste 0 -- -- 43
2020-07-12 11:00:00 26 14 Sudeste 33 Este 0 -- -- 49
2020-07-12 10:00:00 23.1 17 Sudeste 41 Sudeste 0 -- -- 60
2020-07-12 09:00:00 21.3 21 Sudeste 44 Sudeste 0 -- -- 67
2020-07-12 08:00:00 20.6 21 Sudeste 41 Sudeste 0 -- -- 70
2020-07-12 07:00:00 20.5 22 Sudeste 48 Sudeste 0 -- -- 69
2020-07-12 06:00:00 20.7 26 Este 48 Este 0 -- -- 69
2020-07-12 05:00:00 21 26 Este 48 Este 0 -- -- 69
2020-07-12 04:00:00 21.1 26 Sudeste 48 Sudeste 0 -- -- 73
2020-07-12 03:00:00 21.3 23 Sudeste 45 Sudeste 0 -- -- 73
2020-07-12 02:00:00 21.9 23 Sudeste 48 Sudeste 0 -- -- 71
2020-07-12 01:00:00 22.8 22 Sudeste 41 Este 0 -- -- 69
2020-07-12 00:00:00 24.1 21 Sudeste 39 Este 0 -- -- 64
2020-07-11 23:00:00 25.5 19 Sudeste 35 Sudeste 0 -- -- 59
2020-07-11 22:00:00 27.1 18 Sudeste 36 Sudeste 0 -- -- 52
2020-07-11 21:00:00 29.3 20 Este 39 Este 0 -- -- 44
2020-07-11 20:00:00 31.4 19 Sudeste 38 Sudeste 0 -- -- 37
2020-07-11 19:00:00 32.9 18 Sudeste 32 Sudeste 0 -- -- 32
2020-07-11 18:00:00 33.1 19 Sudeste 36 Sudeste 0 -- -- 32
2020-07-11 17:00:00 33.3 17 Sudeste 35 Este 0 -- -- 30
2020-07-11 16:00:00 33.1 19 Sudeste 36 Sudeste 0 -- -- 31
2020-07-11 15:00:00 32.5 17 Sudeste 36 Sudeste 0 -- -- 31
2020-07-11 14:00:00 31.5 18 Sudeste 36 Este 0 -- -- 31
2020-07-11 13:00:00 30 20 Sudeste 38 Sudeste 0 -- -- 33
2020-07-11 12:00:00 28.5 17 Sudeste 33 Sudeste 0 -- -- 37
2020-07-11 11:00:00 26.3 19 Sudeste 41 Sudeste 0 -- -- 44
2020-07-11 10:00:00 24.7 18 Sudeste 37 Sudeste 0 -- -- 44
2020-07-11 09:00:00 23.2 14 Sudeste 29 Sudeste 0 -- -- 45
2020-07-11 08:00:00 21.1 10 Este 23 Este 0 -- -- 51
2020-07-11 07:00:00 20.7 11 Este 24 Este 0 -- -- 53
2020-07-11 06:00:00 20.8 13 Este 28 Este 0 -- -- 54
2020-07-11 05:00:00 20.8 16 Este 30 Este 0 -- -- 54
2020-07-11 04:00:00 21.1 17 Este 33 Este 0 -- -- 54
2020-07-11 03:00:00 21.5 21 Este 36 Este 0 -- -- 55
2020-07-11 02:00:00 22.3 21 Este 36 Este 0 -- -- 52
2020-07-11 01:00:00 23.3 16 Este 35 Este 0 -- -- 50
2020-07-11 00:00:00 24.5 18 Sudeste 32 Sudeste 0 -- -- 47
2020-07-10 23:00:00 26.4 15 Sudeste 28 Sudeste 0 -- -- 47
2020-07-10 22:00:00 29 4 Este 8 Este 0 -- -- 38
2020-07-10 21:00:00 30.5 2 Sur 9 Sur 0 -- -- 31
2020-07-10 20:00:00 31.2 3 Sur 12 Sur 0 -- -- 29
2020-07-10 19:00:00 32.2 3 Sudoeste 14 Norte 0 -- -- 30
2020-07-10 18:00:00 32.8 6 Oeste 17 Noroeste 0 -- -- 27
2020-07-10 17:00:00 32.5 4 Sudoeste 17 Sudoeste 0 -- -- 27
2020-07-10 16:00:00 31.4 9 Sudeste 24 Sur 0 -- -- 28
2020-07-10 15:00:00 30.2 8 Sudeste 17 Sudeste 0 -- -- 36
2020-07-10 14:00:00 29 9 Sudeste 22 Sur 0 -- -- 40
2020-07-10 13:00:00 27.4 8 Sur 22 Sudeste 0 -- -- 44
2020-07-10 12:00:00 25.9 12 Sudeste 20 Sur 0 -- -- 48
2020-07-10 11:00:00 24.3 11 Sudeste 21 Sudeste 0 -- -- 52
2020-07-10 10:00:00 22.6 12 Sudeste 28 Este 0 -- -- 59
2020-07-10 09:00:00 20.8 14 Este 26 Este 0 -- -- 63
2020-07-10 08:00:00 18.8 13 Este 23 Sudeste 0 -- -- 69
2020-07-10 07:00:00 18.9 15 Este 25 Sudeste 0 -- -- 66
2020-07-10 06:00:00 19 7 Este 22 Sudeste 0 -- -- 65
2020-07-10 05:00:00 19 13 Este 26 Este 0 -- -- 63
2020-07-10 04:00:00 18.7 9 Este 18 Sudeste 0 -- -- 64
2020-07-10 03:00:00 19 0 Calma 24 Este 0 -- -- 63
2020-07-10 02:00:00 20.1 16 Sudeste 27 Sudeste 0 -- -- 54
2020-07-10 01:00:00 20.2 12 Sudeste 21 Este 0 -- -- 53
2020-07-10 00:00:00 17.9 3 Nordeste 13 Norte 0 -- -- 67
2020-07-09 23:00:00 18.2 5 Nordeste 18 Norte 0 -- -- 65
2020-07-09 22:00:00 18.7 6 Nordeste 18 Nordeste 0 -- -- 63
2020-07-09 21:00:00 19.5 10 Nordeste 31 Norte 0 -- -- 60
2020-07-09 20:00:00 19.5 11 Nordeste 34 Nordeste 0 -- -- 60
2020-07-09 19:00:00 19.3 13 Nordeste 33 Este 0.2 -- -- 64
2020-07-09 18:00:00 17.5 9 Nordeste 48 Sudoeste 15.8 -- -- 76
2020-07-09 17:00:00 29.8 4 Este 16 Sudeste 0 -- -- 33
2020-07-09 16:00:00 29.9 8 Este 19 Sudeste 0 -- -- 33
2020-07-09 15:00:00 29.4 8 Sudeste 17 Sudeste 0 -- -- 32
2020-07-09 14:00:00 28.4 8 Sudeste 18 Sudeste 0 -- -- 34
2020-07-09 13:00:00 27.7 9 Sudeste 15 Sudeste 0 -- -- 41
2020-07-09 12:00:00 27.4 4 Sudeste 12 Sur 0 -- -- 38
2020-07-09 11:00:00 25.1 8 Sur 18 Sudeste 0 -- -- 48
2020-07-09 10:00:00 23 10 Sudeste 21 Sudeste 0 -- -- 63
2020-07-09 09:00:00 21.8 10 Sudeste 22 Este 0 -- -- 70
2020-07-09 08:00:00 20 12 Este 26 Sudeste 0 -- -- 78
2020-07-09 07:00:00 20 14 Sudeste 27 Sudeste 0 -- -- 77
2020-07-09 06:00:00 20.3 14 Sudeste 28 Sudeste 0 -- -- 76
2020-07-09 05:00:00 20.9 15 Sudeste 34 Este 0 -- -- 74
2020-07-09 04:00:00 20.9 17 Sudeste 34 Sudeste 0 -- -- 75
2020-07-09 03:00:00 21.1 19 Sudeste 35 Sudeste 0.2 -- -- 77
2020-07-09 02:00:00 21.3 20 Sudeste 36 Sudeste 0 -- -- 75
2020-07-09 01:00:00 21.7 21 Este 38 Este 0.2 -- -- 69
2020-07-09 00:00:00 21.8 19 Sudeste 36 Sudeste 0 -- -- 60
2020-07-08 23:00:00 21.3 17 Sudeste 39 Sudeste 0.4 -- -- 66
2020-07-08 22:00:00 24.6 16 Sudeste 41 Este 0 -- -- 50
2020-07-08 21:00:00 25.7 17 Este 40 Este 0 -- -- 43
2020-07-08 20:00:00 25.7 22 Sudeste 46 Sudeste 0 -- -- 46
2020-07-08 19:00:00 24.3 24 Sudeste 45 Sudeste 0.6 -- -- 54
2020-07-08 18:00:00 27.4 23 Sudeste 45 Sudeste 0 -- -- 52
2020-07-08 17:00:00 29.7 26 Sudeste 54 Sudeste 0 -- -- 35
2020-07-08 16:00:00 29.8 23 Sudeste 41 Sudeste 0 -- -- 38
2020-07-08 15:00:00 31 19 Sudeste 45 Este 0 -- -- 35
2020-07-08 14:00:00 30.5 27 Sudeste 46 Este 0 -- -- 37
2020-07-08 13:00:00 30.7 18 Sudeste 39 Este 0 -- -- 36
2020-07-08 12:00:00 28.9 18 Sudeste 37 Este 0 -- -- 38
2020-07-08 11:00:00 25.8 9 Este 33 Nordeste 0 -- -- 47
2020-07-08 10:00:00 24 6 Norte 46 Sudeste 0 -- -- 52
2020-07-08 09:00:00 22.7 24 Sudeste 44 Este 0 -- -- 55
2020-07-08 08:00:00 21.4 17 Este 39 Este 0 -- -- 57
2020-07-08 07:00:00 22 8 Sudeste 25 Este 0 -- -- 58
2020-07-08 06:00:00 22.4 16 Este 31 Este 0 -- -- 57
2020-07-08 05:00:00 22.3 17 Sudeste 32 Sudeste 0 -- -- 56
2020-07-08 04:00:00 22.7 18 Este 32 Sudeste 0 -- -- 55
2020-07-08 03:00:00 23.5 16 Este 30 Este 0 -- -- 54
2020-07-08 02:00:00 24.3 17 Este 31 Este 0 -- -- 52
2020-07-08 01:00:00 26.7 14 Sudeste 26 Este 0 -- -- 51
2020-07-08 00:00:00 29.8 4 Nordeste 12 Noroeste 0 -- -- 21